Sumas, WA (98295)

1:33 AM PST on December 26, 2014 (GMT -0800)
Reese Hill Rd, Anderson Lake | Change Station
CLOSE
Current Station
Personal Weather Station
Location: Sumas, WA
Elevation: 535 ft
Nearby Weather Stations

Elev 535 ft 48.97 °N, 122.21 °W | Updated 5 minutes ago

Overcast
Overcast
33.6 °F
Feels Like 34 °F
N
0.0
Wind Variable Wind from SW

Today
High -- | Low -- °F
--% Chance of Precip.
Yesterday
High -- | Low -- °F
Precip. -- in
8:02 AM 4:17 PM
Waxing Crescent, 24% visible
Pressure 30.30 in
Visibility 8.0 miles
Clouds Scattered Clouds 1800 ft
Mostly Cloudy 2500 ft
Overcast 4000 ft
Windchill 34 °F
Dew Point 33 °F
Humidity 99%
Rainfall 0.00 in
Snow Depth Not available.
UV 0 out of 12
Pollen .50 out of 12
Air Quality Not available.
Flu Activity Not available.
SPECI KBLI 260923Z AUTO 00000KT 8SM SCT018 BKN025 OVC040 02/01 A3030 RMK AO2

More Conditions Fewer Conditions

Pressure 30.30 in
Visibility 8.0 miles
Clouds Scattered Clouds 1800 ft
Mostly Cloudy 2500 ft
Overcast 4000 ft
Windchill 34 °F
Dew Point 33 °F
Humidity 99%
Rainfall 0.00 in
Snow Depth Not available.
UV 0 out of 12
Pollen .50 out of 12
Air Quality Not available.
Flu Activity Not available.
SPECI KBLI 260923Z AUTO 00000KT 8SM SCT018 BKN025 OVC040 02/01 A3030 RMK AO2

More Conditions Fewer Conditions

10-Day Weather Forecast

Almanac

Astronomy

Dec. 26, 2014 Rise Set
Actual Time
Civil Twilight
Nautical Twilight
Astronomical Twilight
Moon
Length of Visible Light
Length of Day
Tomorrow will be .
, % of the Moon is Illuminated

Today's Extremes

State Highs State Lows

Community

WunderPhotos

Upload Photos

1,780,568 photos uploaded!

WunderBlogs® & News

Nearby

Air Quality

  Air Quality AQ Index Pollutant
Not available.

Snow Depth

Station Depth Elevation

Earthquake Activity

City Distance Mag. Time & Date
Minimum magnitude displayed is 2.5.

Coastal Water Temperatures

Place Temperature

Nearby Weather Stations